Dades meteomassalio
Diari Summary for Juliol 1, 2017 Units:  Metric    English   Both
« Previous Day
Next Day »
Diari Semanal Mensual Anual Personalitzat
  Maxima: Minima: Mijana:
Temperatura: 23.0 °C 13.8 °C 18.2 °C
Rosada: 10.1 °C 6.6 °C 8.4 °C
Humitat: 63 % 42 % 53 %
Velocitat del vent: 51.8 km/h 0.0 km/h 31 km/h
Racha vent: 51.8 km/h - -
Vent:- - NW
Pressio: 1024.9 hPa 1019.9 hPa -
Pluja: 0.0 mm    
Historical Graphs
 
 
Tabular Data for Juliol 1, 2017
Time Temperature Dew Point Pressure Wind Wind Speed Wind Gust Humidity Rainfall Rate (Hourly) solar Conditions
00:02 16.7 °C 8.4 °C 1019.9 hPa NW 29.6 km/h 29.6 km/h 58 % 0.0 mm 0.0 W/m2 CLR
00:07 16.8 °C 8.4 °C 1019.9 hPa NW 38.9 km/h 38.9 km/h 58 % 0.0 mm 0.0 W/m2 CLR
00:12 16.8 °C 8.3 °C 1019.9 hPa NW 31.5 km/h 31.5 km/h 57 % 0.0 mm 0.0 W/m2 CLR
00:17 16.8 °C 8.3 °C 1019.9 hPa NW 14.8 km/h 14.8 km/h 57 % 0.0 mm 0.0 W/m2 CLR
00:22 16.7 °C 8.2 °C 1019.9 hPa NNW 20.4 km/h 20.4 km/h 57 % 0.0 mm 0.0 W/m2 CLR
00:27 16.7 °C 8.1 °C 1019.9 hPa NW 29.0 km/h 29.0 km/h 57 % 0.0 mm 0.0 W/m2 CLR
00:32 16.7 °C 8.1 °C 1019.9 hPa WNW 18.5 km/h 18.5 km/h 57 % 0.0 mm 0.0 W/m2 CLR
00:37 16.6 °C 8.0 °C 1019.9 hPa NW 27.8 km/h 27.8 km/h 57 % 0.0 mm 0.0 W/m2 CLR
00:42 16.5 °C 7.9 °C 1019.9 hPa NW 29.6 km/h 29.6 km/h 57 % 0.0 mm 0.0 W/m2 CLR
00:47 16.5 °C 7.9 °C 1020.2 hPa NW 33.3 km/h 33.3 km/h 57 % 0.0 mm 0.0 W/m2 CLR
00:52 16.4 °C 7.9 °C 1020.2 hPa NW 31.5 km/h 31.5 km/h 57 % 0.0 mm 0.0 W/m2 CLR
00:53 16.4 °C 7.9 °C 1020.2 hPa NW 31.5 km/h 31.5 km/h 57 % 0.0 mm 0.0 W/m2 CLR
00:58 16.4 °C 7.8 °C 1020.2 hPa NW 18.5 km/h 18.5 km/h 57 % 0.0 mm 0.0 W/m2 CLR
01:03 16.4 °C 7.8 °C 1020.5 hPa WNW 20.4 km/h 20.4 km/h 57 % 0.0 mm 0.0 W/m2 CLR
01:08 16.4 °C 7.8 °C 1020.5 hPa NW 18.5 km/h 18.5 km/h 57 % 0.0 mm 0.0 W/m2 CLR
01:13 16.4 °C 7.8 °C 1020.5 hPa NW 31.5 km/h 31.5 km/h 57 % 0.0 mm 0.0 W/m2 CLR
01:18 16.3 °C 7.8 °C 1020.5 hPa NNW 24.1 km/h 24.1 km/h 57 % 0.0 mm 0.0 W/m2 CLR
01:23 16.3 °C 8.0 °C 1020.2 hPa NW 20.4 km/h 20.4 km/h 58 % 0.0 mm 0.0 W/m2 CLR
01:28 16.3 °C 8.0 °C 1020.5 hPa NW 25.9 km/h 25.9 km/h 58 % 0.0 mm 0.0 W/m2 CLR
01:33 16.3 °C 8.0 °C 1020.2 hPa WNW 18.5 km/h 18.5 km/h 58 % 0.0 mm 0.0 W/m2 CLR
01:38 16.3 °C 8.0 °C 1020.5 hPa NNW 20.4 km/h 20.4 km/h 58 % 0.0 mm 0.0 W/m2 CLR
01:43 16.3 °C 8.1 °C 1020.5 hPa NNW 27.8 km/h 27.8 km/h 58 % 0.0 mm 0.0 W/m2 CLR
01:48 16.3 °C 8.1 °C 1020.5 hPa NNW 27.8 km/h 27.8 km/h 58 % 0.0 mm 0.0 W/m2 CLR
01:53 16.3 °C 7.7 °C 1020.5 hPa NW 25.9 km/h 25.9 km/h 57 % 0.0 mm 0.0 W/m2 CLR
01:54 16.3 °C 7.7 °C 1020.2 hPa NW 27.8 km/h 27.8 km/h 57 % 0.0 mm 0.0 W/m2 CLR
01:59 16.2 °C 7.7 °C 1020.2 hPa NW 25.9 km/h 25.9 km/h 57 % 0.0 mm 0.0 W/m2 CLR
02:04 16.2 °C 7.6 °C 1020.2 hPa North 35.2 km/h 35.2 km/h 57 % 0.0 mm 0.0 W/m2 CLR
02:09 16.1 °C 7.6 °C 1020.2 hPa NW 27.8 km/h 27.8 km/h 57 % 0.0 mm 0.0 W/m2 CLR
02:14 16.0 °C 7.5 °C 1020.2 hPa NW 29.6 km/h 29.6 km/h 57 % 0.0 mm 0.0 W/m2 CLR
02:19 15.9 °C 7.7 °C 1020.2 hPa NW 25.9 km/h 25.9 km/h 58 % 0.0 mm 0.0 W/m2 CLR
02:24 15.9 °C 7.4 °C 1020.2 hPa NNW 29.6 km/h 29.6 km/h 57 % 0.0 mm 0.0 W/m2 CLR
02:29 15.8 °C 7.3 °C 1020.2 hPa NW 24.1 km/h 24.1 km/h 57 % 0.0 mm 0.0 W/m2 CLR
02:34 15.8 °C 7.3 °C 1020.2 hPa NNW 18.5 km/h 18.5 km/h 57 % 0.0 mm 0.0 W/m2 CLR
02:39 15.7 °C 7.4 °C 1020.2 hPa NNW 20.4 km/h 20.4 km/h 58 % 0.0 mm 0.0 W/m2 CLR
02:44 15.6 °C 7.3 °C 1020.2 hPa NW 20.4 km/h 20.4 km/h 58 % 0.0 mm 0.0 W/m2 CLR
02:49 15.6 °C 7.6 °C 1020.2 hPa NNW 31.5 km/h 31.5 km/h 59 % 0.0 mm 0.0 W/m2 CLR
02:54 15.6 °C 7.6 °C 1020.2 hPa WNW 20.4 km/h 20.4 km/h 59 % 0.0 mm 0.0 W/m2 CLR
02:59 15.5 °C 7.5 °C 1020.5 hPa NW 25.9 km/h 25.9 km/h 59 % 0.0 mm 0.0 W/m2 CLR
03:04 15.5 °C 7.5 °C 1020.5 hPa NW 20.4 km/h 20.4 km/h 59 % 0.0 mm 0.0 W/m2 CLR
03:10 15.5 °C 7.5 °C 1020.5 hPa NW 20.4 km/h 20.4 km/h 59 % 0.0 mm 0.0 W/m2 CLR
03:15 15.4 °C 7.7 °C 1020.2 hPa WNW 16.7 km/h 16.7 km/h 60 % 0.0 mm 0.0 W/m2 CLR
03:20 15.4 °C 7.9 °C 1020.2 hPa WNW 18.5 km/h 18.5 km/h 61 % 0.0 mm 0.0 W/m2 CLR
03:25 15.4 °C 7.7 °C 1020.2 hPa West 31.5 km/h 31.5 km/h 60 % 0.0 mm 0.0 W/m2 CLR
03:30 15.4 °C 7.7 °C 1020.2 hPa WNW 31.5 km/h 31.5 km/h 60 % 0.0 mm 0.0 W/m2 CLR
03:35 15.3 °C 7.6 °C 1020.5 hPa WNW 24.1 km/h 24.1 km/h 60 % 0.0 mm 0.0 W/m2 CLR
03:40 15.3 °C 7.6 °C 1020.5 hPa West 25.9 km/h 25.9 km/h 60 % 0.0 mm 0.0 W/m2 CLR
03:45 15.3 °C 7.3 °C 1020.2 hPa NW 32.2 km/h 32.2 km/h 59 % 0.0 mm 0.0 W/m2 CLR
03:50 15.3 °C 7.3 °C 1020.5 hPa NW 22.2 km/h 22.2 km/h 59 % 0.0 mm 0.0 W/m2 CLR
03:55 15.3 °C 7.1 °C 1020.5 hPa WNW 33.3 km/h 33.3 km/h 58 % 0.0 mm 0.0 W/m2 CLR
04:00 15.2 °C 7.0 °C 1020.5 hPa NW 31.5 km/h 31.5 km/h 58 % 0.0 mm 0.0 W/m2 CLR
04:05 15.1 °C 7.2 °C 1020.2 hPa NNW 18.5 km/h 18.5 km/h 59 % 0.0 mm 0.0 W/m2 CLR
04:10 15.1 °C 7.1 °C 1020.2 hPa WNW 25.9 km/h 25.9 km/h 59 % 0.0 mm 0.0 W/m2 CLR
04:15 15.0 °C 7.1 °C 1020.2 hPa NW 29.6 km/h 29.6 km/h 59 % 0.0 mm 0.0 W/m2 CLR
04:20 15.0 °C 7.1 °C 1020.2 hPa West 25.7 km/h 25.7 km/h 59 % 0.0 mm 0.0 W/m2 CLR
04:25 15.0 °C 7.1 °C 1020.2 hPa NW 31.5 km/h 31.5 km/h 59 % 0.0 mm 0.0 W/m2 CLR
04:30 15.0 °C 7.1 °C 1020.2 hPa WNW 24.1 km/h 24.1 km/h 59 % 0.0 mm 0.0 W/m2 CLR
04:35 14.9 °C 7.0 °C 1020.2 hPa NW 31.5 km/h 31.5 km/h 59 % 0.0 mm 0.0 W/m2 CLR
04:40 14.9 °C 6.9 °C 1020.5 hPa West 25.9 km/h 25.9 km/h 59 % 0.0 mm 0.0 W/m2 CLR
04:45 14.8 °C 6.9 °C 1020.5 hPa West 29.6 km/h 29.6 km/h 59 % 0.0 mm 0.0 W/m2 CLR
04:50 14.8 °C 6.9 °C 1020.5 hPa WNW 31.5 km/h 31.5 km/h 59 % 0.0 mm 0.0 W/m2 CLR
04:55 14.8 °C 6.7 °C 1020.5 hPa WNW 33.3 km/h 33.3 km/h 58 % 0.0 mm 0.0 W/m2 CLR
05:00 14.8 °C 6.6 °C 1020.5 hPa WNW 37.0 km/h 37.0 km/h 58 % 0.0 mm 0.0 W/m2 CLR
05:05 14.7 °C 6.7 °C 1020.5 hPa West 31.5 km/h 31.5 km/h 59 % 0.0 mm 0.0 W/m2 CLR
05:10 14.6 °C 6.7 °C 1020.5 hPa WNW 25.9 km/h 25.9 km/h 59 % 0.0 mm 0.0 W/m2 CLR
05:15 14.6 °C 6.6 °C 1020.5 hPa WNW 38.9 km/h 38.9 km/h 59 % 0.0 mm 0.0 W/m2 CLR
05:20 14.6 °C 6.9 °C 1020.5 hPa WNW 27.8 km/h 27.8 km/h 60 % 0.0 mm 0.0 W/m2 CLR
05:25 14.5 °C 6.8 °C 1020.5 hPa WNW 22.2 km/h 22.2 km/h 60 % 0.0 mm 0.0 W/m2 CLR
05:30 14.5 °C 6.8 °C 1020.5 hPa NW 25.9 km/h 25.9 km/h 60 % 0.0 mm 0.0 W/m2 CLR
05:35 14.5 °C 6.8 °C 1020.5 hPa West 20.4 km/h 20.4 km/h 60 % 0.0 mm 0.0 W/m2 CLR
05:40 14.5 °C 6.8 °C 1020.5 hPa WNW 22.2 km/h 22.2 km/h 60 % 0.0 mm 0.0 W/m2 CLR
05:45 14.6 °C 6.9 °C 1020.9 hPa West 24.1 km/h 24.1 km/h 60 % 0.0 mm 0.0 W/m2 CLR
05:50 14.5 °C 6.8 °C 1020.9 hPa WNW 32.2 km/h 32.2 km/h 60 % 0.0 mm 0.0 W/m2 CLR
05:55 14.5 °C 6.8 °C 1020.9 hPa NW 32.2 km/h 32.2 km/h 60 % 0.0 mm 0.0 W/m2 CLR
06:00 14.5 °C 6.8 °C 1020.9 hPa WNW 22.2 km/h 22.2 km/h 60 % 0.0 mm 0.0 W/m2 CLR
06:05 14.4 °C 6.8 °C 1020.9 hPa NW 24.1 km/h 24.1 km/h 60 % 0.0 mm 0.0 W/m2 CLR
06:10 14.4 °C 6.8 °C 1020.9 hPa West 29.6 km/h 29.6 km/h 60 % 0.0 mm 0.0 W/m2 CLR
06:15 14.4 °C 6.7 °C 1020.9 hPa WNW 27.8 km/h 27.8 km/h 60 % 0.0 mm 0.0 W/m2 CLR
06:20 14.4 °C 6.9 °C 1021.2 hPa West 31.5 km/h 31.5 km/h 61 % 0.0 mm 0.0 W/m2 CLR
06:25 14.3 °C 6.9 °C 1020.9 hPa NW 31.5 km/h 31.5 km/h 61 % 0.0 mm 0.0 W/m2 OVC
06:30 14.3 °C 6.8 °C 1021.2 hPa WNW 27.8 km/h 27.8 km/h 61 % 0.0 mm 0.0 W/m2 OVC
06:35 14.2 °C 7.0 °C 1021.2 hPa WNW 25.9 km/h 25.9 km/h 62 % 0.0 mm 0.0 W/m2 OVC
06:40 14.1 °C 6.9 °C 1021.2 hPa NW 27.8 km/h 27.8 km/h 62 % 0.0 mm 9.0 W/m2 BKN
06:45 14.0 °C 6.8 °C 1021.2 hPa WNW 18.5 km/h 18.5 km/h 62 % 0.0 mm 11.0 W/m2 BKN
06:50 13.9 °C 6.8 °C 1021.2 hPa WNW 20.9 km/h 20.9 km/h 62 % 0.0 mm 14.0 W/m2 BKN
06:55 13.9 °C 7.0 °C 1021.6 hPa WNW 19.3 km/h 19.3 km/h 63 % 0.0 mm 16.0 W/m2 BKN
07:00 13.9 °C 6.9 °C 1021.6 hPa West 20.4 km/h 20.4 km/h 63 % 0.0 mm 16.0 W/m2 BKN
07:05 13.9 °C 6.9 °C 1021.6 hPa WNW 24.1 km/h 24.1 km/h 63 % 0.0 mm 18.0 W/m2 BKN
07:10 13.8 °C 6.9 °C 1021.6 hPa WNW 24.1 km/h 24.1 km/h 63 % 0.0 mm 23.0 W/m2 BKN
07:15 13.9 °C 6.9 °C 1021.6 hPa WNW 25.9 km/h 25.9 km/h 63 % 0.0 mm 40.0 W/m2 BKN
07:20 13.9 °C 7.0 °C 1021.6 hPa WNW 33.3 km/h 33.3 km/h 63 % 0.0 mm 53.0 W/m2 SCT
07:25 14.1 °C 6.9 °C 1021.6 hPa WNW 20.4 km/h 20.4 km/h 62 % 0.0 mm 65.0 W/m2 SCT
07:30 14.2 °C 7.0 °C 1021.6 hPa WNW 31.5 km/h 31.5 km/h 62 % 0.0 mm 77.0 W/m2 FEW
07:35 14.3 °C 7.1 °C 1021.6 hPa WNW 35.2 km/h 35.2 km/h 62 % 0.0 mm 91.0 W/m2 FEW
07:40 14.3 °C 6.9 °C 1021.6 hPa WNW 35.2 km/h 35.2 km/h 61 % 0.0 mm 105.0 W/m2 CLR
07:45 14.4 °C 6.9 °C 1021.6 hPa West 29.0 km/h 29.0 km/h 61 % 0.0 mm 123.0 W/m2 CLR
07:50 14.6 °C 7.1 °C 1021.6 hPa West 22.2 km/h 22.2 km/h 61 % 0.0 mm 139.0 W/m2 CLR
07:55 14.6 °C 7.2 °C 1021.6 hPa NW 35.2 km/h 35.2 km/h 61 % 0.0 mm 155.0 W/m2 CLR
08:00 14.7 °C 7.3 °C 1021.6 hPa NNW 30.6 km/h 30.6 km/h 61 % 0.0 mm 172.0 W/m2 CLR
08:05 14.8 °C 7.1 °C 1021.6 hPa NW 35.4 km/h 35.4 km/h 60 % 0.0 mm 193.0 W/m2 CLR
08:10 14.9 °C 7.2 °C 1021.6 hPa NW 29.6 km/h 29.6 km/h 60 % 0.0 mm 209.0 W/m2 CLR
08:15 15.0 °C 7.1 °C 1021.6 hPa NW 33.8 km/h 33.8 km/h 59 % 0.0 mm 223.0 W/m2 CLR
08:20 15.1 °C 7.1 °C 1021.6 hPa NW 40.7 km/h 40.7 km/h 59 % 0.0 mm 234.0 W/m2 CLR
08:25 15.2 °C 7.3 °C 1021.6 hPa NNW 35.2 km/h 35.2 km/h 59 % 0.0 mm 258.0 W/m2 CLR
08:30 15.3 °C 7.3 °C 1021.9 hPa WNW 35.2 km/h 35.2 km/h 59 % 0.0 mm 274.0 W/m2 CLR
08:35 15.3 °C 7.3 °C 1021.9 hPa NW 40.7 km/h 40.7 km/h 59 % 0.0 mm 287.0 W/m2 CLR
08:40 15.4 °C 7.4 °C 1021.9 hPa NNW 37.0 km/h 37.0 km/h 59 % 0.0 mm 302.0 W/m2 CLR
08:45 15.5 °C 7.5 °C 1021.9 hPa NNW 31.5 km/h 31.5 km/h 59 % 0.0 mm 318.0 W/m2 CLR
08:50 15.6 °C 7.4 °C 1021.9 hPa WNW 44.4 km/h 44.4 km/h 58 % 0.0 mm 338.0 W/m2 CLR
08:55 15.7 °C 7.4 °C 1021.9 hPa WNW 31.5 km/h 31.5 km/h 58 % 0.0 mm 353.0 W/m2 CLR
09:00 15.8 °C 7.5 °C 1021.9 hPa NNW 38.9 km/h 38.9 km/h 58 % 0.0 mm 369.0 W/m2 CLR
09:05 16.0 °C 7.7 °C 1021.9 hPa WNW 29.6 km/h 29.6 km/h 58 % 0.0 mm 392.0 W/m2 CLR
09:10 16.0 °C 7.5 °C 1021.9 hPa NNW 29.0 km/h 29.0 km/h 57 % 0.0 mm 406.0 W/m2 CLR
09:15 16.0 °C 7.5 °C 1021.9 hPa NW 44.4 km/h 44.4 km/h 57 % 0.0 mm 406.0 W/m2 CLR
09:20 15.9 °C 7.4 °C 1022.2 hPa NNW 31.5 km/h 31.5 km/h 57 % 0.0 mm 457.0 W/m2 CLR
09:25 16.2 °C 7.7 °C 1022.2 hPa WNW 25.9 km/h 25.9 km/h 57 % 0.0 mm 450.0 W/m2 CLR
09:30 16.4 °C 7.3 °C 1022.2 hPa WNW 37.0 km/h 37.0 km/h 55 % 0.0 mm 464.0 W/m2 CLR
09:35 16.6 °C 7.5 °C 1022.2 hPa NW 37.0 km/h 37.0 km/h 55 % 0.0 mm 475.0 W/m2 CLR
09:40 16.7 °C 7.3 °C 1021.9 hPa NW 35.4 km/h 35.4 km/h 54 % 0.0 mm 494.0 W/m2 CLR
09:45 16.8 °C 7.4 °C 1021.9 hPa NW 38.9 km/h 38.9 km/h 54 % 0.0 mm 506.0 W/m2 CLR
09:50 17.1 °C 7.4 °C 1021.9 hPa West 31.5 km/h 31.5 km/h 53 % 0.0 mm 520.0 W/m2 CLR
09:55 17.4 °C 7.4 °C 1021.9 hPa WNW 31.5 km/h 31.5 km/h 52 % 0.0 mm 534.0 W/m2 CLR
10:01 17.4 °C 7.2 °C 1021.9 hPa NW 35.2 km/h 35.2 km/h 51 % 0.0 mm 550.0 W/m2 CLR
10:06 17.4 °C 7.5 °C 1021.9 hPa WNW 37.0 km/h 37.0 km/h 52 % 0.0 mm 584.0 W/m2 CLR
10:11 17.4 °C 7.5 °C 1021.9 hPa WNW 37.0 km/h 37.0 km/h 52 % 0.0 mm 582.0 W/m2 CLR
10:16 17.6 °C 7.6 °C 1021.9 hPa WNW 44.4 km/h 44.4 km/h 52 % 0.0 mm 596.0 W/m2 CLR
10:21 17.8 °C 7.8 °C 1021.9 hPa WNW 29.6 km/h 29.6 km/h 52 % 0.0 mm 629.0 W/m2 CLR
10:26 18.1 °C 7.8 °C 1021.9 hPa WNW 37.0 km/h 37.0 km/h 51 % 0.0 mm 636.0 W/m2 CLR
10:31 17.9 °C 7.9 °C 1021.9 hPa NW 40.7 km/h 40.7 km/h 52 % 0.0 mm 649.0 W/m2 CLR
10:36 18.1 °C 8.1 °C 1021.9 hPa NW 32.2 km/h 33.8 km/h 52 % 0.0 mm 745.0 W/m2 CLR
10:41 18.2 °C 7.9 °C 1022.2 hPa NNW 31.5 km/h 31.5 km/h 51 % 0.0 mm 729.0 W/m2 CLR
10:46 18.2 °C 7.9 °C 1021.9 hPa WNW 33.3 km/h 33.3 km/h 51 % 0.0 mm 708.0 W/m2 CLR
10:51 18.4 °C 8.1 °C 1021.9 hPa NNW 38.9 km/h 38.9 km/h 51 % 0.0 mm 165.0 W/m2 CLR
10:56 18.1 °C 8.1 °C 1021.9 hPa WNW 31.5 km/h 31.5 km/h 52 % 0.0 mm 810.0 W/m2 CLR
11:01 17.9 °C 7.9 °C 1022.2 hPa NNW 40.7 km/h 40.7 km/h 52 % 0.0 mm 185.0 W/m2 CLR
11:06 17.8 °C 8.1 °C 1022.2 hPa WNW 33.3 km/h 33.3 km/h 53 % 0.0 mm 195.0 W/m2 CLR
11:11 17.9 °C 8.2 °C 1022.2 hPa WNW 42.6 km/h 42.6 km/h 53 % 0.0 mm 265.0 W/m2 CLR
11:12 17.9 °C 8.2 °C 1022.2 hPa NNW 33.3 km/h 33.3 km/h 53 % 0.0 mm 269.0 W/m2 CLR
11:17 17.8 °C 8.1 °C 1022.2 hPa NNW 18.5 km/h 18.5 km/h 53 % 0.0 mm 257.0 W/m2 CLR
11:22 17.9 °C 8.2 °C 1022.2 hPa NNW 31.5 km/h 31.5 km/h 53 % 0.0 mm 295.0 W/m2 CLR
11:27 18.0 °C 8.3 °C 1022.2 hPa NNW 29.6 km/h 29.6 km/h 53 % 0.0 mm 390.0 W/m2 CLR
11:32 18.3 °C 8.3 °C 1022.2 hPa North 37.0 km/h 37.0 km/h 52 % 0.0 mm 424.0 W/m2 CLR
11:37 18.6 °C 8.5 °C 1022.2 hPa NNW 38.9 km/h 38.9 km/h 52 % 0.0 mm 891.0 W/m2 CLR
11:42 19.0 °C 8.3 °C 1021.9 hPa NW 37.0 km/h 37.0 km/h 50 % 0.0 mm 1037.0 W/m2 CLR
11:47 19.0 °C 8.3 °C 1021.9 hPa NW 42.6 km/h 42.6 km/h 50 % 0.0 mm 1037.0 W/m2 CLR
11:52 18.8 °C 8.1 °C 1021.9 hPa WNW 33.3 km/h 33.3 km/h 50 % 0.0 mm 301.0 W/m2 CLR
11:57 19.0 °C 8.1 °C 1021.9 hPa NW 48.1 km/h 48.1 km/h 49 % 0.0 mm 246.0 W/m2 CLR
12:02 18.9 °C 8.3 °C 1021.6 hPa NNW 33.3 km/h 33.3 km/h 50 % 0.0 mm 872.0 W/m2 CLR
12:07 19.3 °C 8.3 °C 1021.6 hPa NW 40.2 km/h 40.2 km/h 49 % 0.0 mm 898.0 W/m2 CLR
12:12 19.5 °C 8.2 °C 1021.6 hPa NNW 42.6 km/h 42.6 km/h 48 % 0.0 mm 932.0 W/m2 CLR
12:13 19.4 °C 8.2 °C 1021.6 hPa NW 42.6 km/h 42.6 km/h 48 % 0.0 mm 932.0 W/m2 CLR
12:18 19.7 °C 8.4 °C 1021.6 hPa WNW 42.6 km/h 42.6 km/h 48 % 0.0 mm 884.0 W/m2 CLR
12:23 19.7 °C 8.7 °C 1021.6 hPa NW 37.0 km/h 37.0 km/h 49 % 0.0 mm 895.0 W/m2 CLR
12:28 20.1 °C 8.4 °C 1021.6 hPa WNW 37.0 km/h 37.0 km/h 47 % 0.0 mm 891.0 W/m2 CLR
12:33 19.9 °C 8.3 °C 1021.6 hPa NW 48.1 km/h 48.1 km/h 47 % 0.0 mm 900.0 W/m2 CLR
12:38 19.7 °C 8.3 °C 1021.6 hPa NW 33.3 km/h 33.3 km/h 48 % 0.0 mm 935.0 W/m2 CLR
12:43 20.1 °C 8.7 °C 1021.6 hPa NW 31.5 km/h 31.5 km/h 48 % 0.0 mm 946.0 W/m2 CLR
12:48 20.4 °C 8.7 °C 1021.9 hPa NW 31.5 km/h 31.5 km/h 47 % 0.0 mm 1067.0 W/m2 CLR
12:53 20.0 °C 8.3 °C 1021.9 hPa NNW 42.6 km/h 42.6 km/h 47 % 0.0 mm 185.0 W/m2 CLR
12:58 19.8 °C 8.4 °C 1021.9 hPa NW 20.4 km/h 20.4 km/h 48 % 0.0 mm 942.0 W/m2 CLR
13:03 20.3 °C 8.6 °C 1021.6 hPa NW 31.5 km/h 31.5 km/h 47 % 0.0 mm 1000.0 W/m2 CLR
13:08 20.4 °C 8.4 °C 1021.6 hPa NNW 35.2 km/h 35.2 km/h 46 % 0.0 mm 1009.0 W/m2 CLR
13:13 20.6 °C 8.6 °C 1021.9 hPa WNW 40.7 km/h 40.7 km/h 46 % 0.0 mm 302.0 W/m2 CLR
13:18 20.3 °C 8.9 °C 1021.6 hPa NW 29.0 km/h 29.0 km/h 48 % 0.0 mm 1042.0 W/m2 CLR
13:23 20.4 °C 8.7 °C 1021.9 hPa NNW 40.7 km/h 40.7 km/h 47 % 0.0 mm 1179.0 W/m2 CLR
13:28 20.8 °C 8.8 °C 1021.6 hPa NW 29.6 km/h 29.6 km/h 46 % 0.0 mm 1172.0 W/m2 CLR
13:33 20.9 °C 8.8 °C 1021.9 hPa NNW 29.6 km/h 29.6 km/h 46 % 0.0 mm 1243.0 W/m2 CLR
13:38 20.8 °C 8.8 °C 1021.9 hPa North 33.3 km/h 33.3 km/h 46 % 0.0 mm 1136.0 W/m2 CLR
13:43 20.8 °C 9.1 °C 1021.9 hPa North 27.8 km/h 27.8 km/h 47 % 0.0 mm 336.0 W/m2 CLR
13:44 20.8 °C 9.1 °C 1021.6 hPa NNW 25.9 km/h 25.9 km/h 47 % 0.0 mm 336.0 W/m2 CLR
13:49 20.8 °C 9.1 °C 1021.9 hPa NNW 40.7 km/h 40.7 km/h 47 % 0.0 mm 1176.0 W/m2 CLR
13:54 21.2 °C 9.1 °C 1021.6 hPa WNW 46.3 km/h 46.3 km/h 46 % 0.0 mm 1222.0 W/m2 CLR
13:59 21.3 °C 9.2 °C 1021.6 hPa NNW 43.4 km/h 43.4 km/h 46 % 0.0 mm 1104.0 W/m2 CLR
14:04 21.7 °C 9.2 °C 1021.6 hPa NW 33.3 km/h 33.3 km/h 45 % 0.0 mm 1179.0 W/m2 CLR
14:09 21.7 °C 8.9 °C 1021.6 hPa NW 43.4 km/h 43.4 km/h 44 % 0.0 mm 279.0 W/m2 CLR
14:14 21.3 °C 8.8 °C 1021.6 hPa NW 31.5 km/h 31.5 km/h 45 % 0.0 mm 267.0 W/m2 CLR
14:19 21.1 °C 9.1 °C 1021.6 hPa WNW 42.6 km/h 42.6 km/h 46 % 0.0 mm 1028.0 W/m2 CLR
14:24 21.4 °C 9.0 °C 1021.6 hPa NW 42.6 km/h 42.6 km/h 45 % 0.0 mm 1042.0 W/m2 CLR
14:29 21.7 °C 9.2 °C 1021.6 hPa NW 35.2 km/h 35.2 km/h 45 % 0.0 mm 1062.0 W/m2 CLR
14:34 21.7 °C 9.2 °C 1021.6 hPa WNW 25.9 km/h 25.9 km/h 45 % 0.0 mm 1085.0 W/m2 CLR
14:39 22.1 °C 9.3 °C 1021.6 hPa NW 32.2 km/h 32.2 km/h 44 % 0.0 mm 1078.0 W/m2 CLR
14:44 21.8 °C 9.4 °C 1021.2 hPa NW 25.9 km/h 25.9 km/h 45 % 0.0 mm 1053.0 W/m2 CLR
14:49 22.2 °C 9.1 °C 1021.6 hPa NNW 25.9 km/h 25.9 km/h 43 % 0.0 mm 1020.0 W/m2 CLR
14:54 22.2 °C 9.1 °C 1021.2 hPa NW 40.7 km/h 40.7 km/h 43 % 0.0 mm 1048.0 W/m2 CLR
14:59 21.9 °C 9.1 °C 1021.6 hPa NNW 45.1 km/h 45.1 km/h 44 % 0.0 mm 1035.0 W/m2 CLR
15:04 21.9 °C 9.1 °C 1021.6 hPa NNW 40.7 km/h 40.7 km/h 44 % 0.0 mm 1011.0 W/m2 CLR
15:09 21.9 °C 9.1 °C 1021.6 hPa NW 44.4 km/h 44.4 km/h 44 % 0.0 mm 1020.0 W/m2 CLR
15:14 22.0 °C 9.2 °C 1021.6 hPa NNW 51.8 km/h 51.8 km/h 44 % 0.0 mm 1130.0 W/m2 CLR
15:19 21.9 °C 9.4 °C 1021.2 hPa NW 35.2 km/h 35.2 km/h 45 % 0.0 mm 1044.0 W/m2 CLR
15:24 22.4 °C 9.6 °C 1021.6 hPa WNW 27.8 km/h 27.8 km/h 44 % 0.0 mm 1049.0 W/m2 CLR
15:29 22.4 °C 9.6 °C 1021.6 hPa NW 30.6 km/h 30.6 km/h 44 % 0.0 mm 1049.0 W/m2 CLR
15:34 22.2 °C 9.4 °C 1021.6 hPa North 38.9 km/h 38.9 km/h 44 % 0.0 mm 1011.0 W/m2 CLR
15:39 22.3 °C 9.2 °C 1021.6 hPa North 37.0 km/h 37.0 km/h 43 % 0.0 mm 979.0 W/m2 CLR
15:44 21.9 °C 9.4 °C 1021.6 hPa NNW 31.5 km/h 31.5 km/h 45 % 0.0 mm 918.0 W/m2 CLR
15:50 22.1 °C 9.6 °C 1021.6 hPa WNW 37.0 km/h 37.0 km/h 45 % 0.0 mm 893.0 W/m2 CLR
15:55 22.2 °C 9.4 °C 1021.6 hPa North 37.0 km/h 37.0 km/h 44 % 0.0 mm 339.0 W/m2 CLR
16:00 22.1 °C 9.6 °C 1021.6 hPa NNW 31.5 km/h 31.5 km/h 45 % 0.0 mm 919.0 W/m2 CLR
16:05 22.2 °C 9.3 °C 1021.6 hPa NW 42.6 km/h 42.6 km/h 44 % 0.0 mm 870.0 W/m2 CLR
16:10 22.2 °C 9.4 °C 1021.6 hPa NNW 40.7 km/h 40.7 km/h 44 % 0.0 mm 891.0 W/m2 CLR
16:15 22.3 °C 9.5 °C 1021.6 hPa WNW 35.2 km/h 35.2 km/h 44 % 0.0 mm 896.0 W/m2 CLR
16:20 22.4 °C 9.6 °C 1021.2 hPa NNW 38.9 km/h 38.9 km/h 44 % 0.0 mm 953.0 W/m2 CLR
16:25 22.7 °C 9.4 °C 1021.2 hPa NNW 27.4 km/h 27.4 km/h 43 % 0.0 mm 907.0 W/m2 CLR
16:30 22.4 °C 9.6 °C 1021.2 hPa NNW 35.2 km/h 35.2 km/h 44 % 0.0 mm 264.0 W/m2 CLR
16:35 22.6 °C 9.7 °C 1021.2 hPa NW 37.0 km/h 37.0 km/h 44 % 0.0 mm 823.0 W/m2 CLR
16:40 22.3 °C 9.4 °C 1021.2 hPa NW 46.3 km/h 46.3 km/h 44 % 0.0 mm 814.0 W/m2 CLR
16:45 22.5 °C 9.6 °C 1021.2 hPa NNW 35.2 km/h 35.2 km/h 44 % 0.0 mm 789.0 W/m2 CLR
16:50 22.3 °C 9.5 °C 1021.2 hPa NNW 38.9 km/h 38.9 km/h 44 % 0.0 mm 772.0 W/m2 CLR
16:55 22.6 °C 9.7 °C 1021.2 hPa North 29.6 km/h 29.6 km/h 44 % 0.0 mm 789.0 W/m2 CLR
17:00 22.8 °C 9.6 °C 1020.9 hPa WNW 29.0 km/h 29.0 km/h 43 % 0.0 mm 745.0 W/m2 CLR
17:05 22.7 °C 9.5 °C 1021.2 hPa North 40.7 km/h 40.7 km/h 43 % 0.0 mm 756.0 W/m2 CLR
17:10 22.4 °C 9.6 °C 1021.2 hPa NW 48.1 km/h 48.1 km/h 44 % 0.0 mm 752.0 W/m2 CLR
17:15 22.8 °C 9.9 °C 1021.2 hPa WNW 25.9 km/h 25.9 km/h 44 % 0.0 mm 731.0 W/m2 CLR
17:20 22.7 °C 9.5 °C 1020.9 hPa NNW 33.3 km/h 33.3 km/h 43 % 0.0 mm 745.0 W/m2 CLR
17:25 22.6 °C 9.3 °C 1021.2 hPa WNW 31.5 km/h 31.5 km/h 43 % 0.0 mm 770.0 W/m2 CLR
17:30 22.2 °C 9.1 °C 1021.2 hPa North 37.0 km/h 37.0 km/h 43 % 0.0 mm 770.0 W/m2 CLR
17:35 22.2 °C 9.7 °C 1021.2 hPa NW 42.6 km/h 42.6 km/h 45 % 0.0 mm 766.0 W/m2 CLR
17:40 22.5 °C 9.6 °C 1020.9 hPa NNW 29.6 km/h 29.6 km/h 44 % 0.0 mm 735.0 W/m2 CLR
17:45 22.9 °C 9.3 °C 1021.2 hPa NNW 42.6 km/h 42.6 km/h 42 % 0.0 mm 135.0 W/m2 CLR
17:50 22.5 °C 9.6 °C 1020.9 hPa WNW 35.2 km/h 35.2 km/h 44 % 0.0 mm 652.0 W/m2 CLR
17:55 22.4 °C 9.6 °C 1021.2 hPa NW 42.6 km/h 42.6 km/h 44 % 0.0 mm 656.0 W/m2 CLR
18:00 22.2 °C 9.4 °C 1021.2 hPa North 33.3 km/h 33.3 km/h 44 % 0.0 mm 446.0 W/m2 CLR
18:05 21.8 °C 9.4 °C 1021.2 hPa NW 31.5 km/h 31.5 km/h 45 % 0.0 mm 285.0 W/m2 CLR
18:06 21.8 °C 9.4 °C 1021.2 hPa NNW 31.5 km/h 31.5 km/h 45 % 0.0 mm 355.0 W/m2 CLR
18:11 22.1 °C 9.2 °C 1021.2 hPa NNW 40.7 km/h 40.7 km/h 44 % 0.0 mm 691.0 W/m2 CLR
18:16 22.4 °C 9.6 °C 1021.2 hPa NNW 33.3 km/h 33.3 km/h 44 % 0.0 mm 708.0 W/m2 CLR
18:21 22.8 °C 9.9 °C 1021.2 hPa WNW 29.6 km/h 29.6 km/h 44 % 0.0 mm 714.0 W/m2 CLR
18:26 22.7 °C 9.8 °C 1021.2 hPa WNW 31.5 km/h 31.5 km/h 44 % 0.0 mm 696.0 W/m2 CLR
18:31 23.0 °C 9.7 °C 1021.2 hPa NW 27.8 km/h 27.8 km/h 43 % 0.0 mm 649.0 W/m2 CLR
18:36 22.7 °C 9.8 °C 1021.2 hPa NNW 37.0 km/h 37.0 km/h 44 % 0.0 mm 584.0 W/m2 CLR
18:41 22.6 °C 10.1 °C 1021.2 hPa NW 31.5 km/h 31.5 km/h 45 % 0.0 mm 526.0 W/m2 CLR
18:46 22.4 °C 9.9 °C 1021.2 hPa NW 42.6 km/h 42.6 km/h 45 % 0.0 mm 520.0 W/m2 CLR
18:51 22.1 °C 9.6 °C 1021.6 hPa North 33.3 km/h 33.3 km/h 45 % 0.0 mm 508.0 W/m2 CLR
18:56 21.9 °C 9.8 °C 1021.6 hPa NNW 37.0 km/h 37.0 km/h 46 % 0.0 mm 452.0 W/m2 CLR
19:01 22.1 °C 9.6 °C 1021.6 hPa NW 35.2 km/h 35.2 km/h 45 % 0.0 mm 448.0 W/m2 CLR
19:06 21.9 °C 9.4 °C 1021.6 hPa NNW 46.3 km/h 46.3 km/h 45 % 0.0 mm 425.0 W/m2 CLR
19:11 21.8 °C 9.3 °C 1021.6 hPa NW 37.0 km/h 37.0 km/h 45 % 0.0 mm 378.0 W/m2 CLR
19:16 21.5 °C 9.4 °C 1021.6 hPa NW 42.6 km/h 42.6 km/h 46 % 0.0 mm 360.0 W/m2 CLR
19:21 21.4 °C 9.3 °C 1021.6 hPa NW 35.2 km/h 35.2 km/h 46 % 0.0 mm 257.0 W/m2 CLR
19:26 21.4 °C 9.3 °C 1021.9 hPa NNW 31.5 km/h 31.5 km/h 46 % 0.0 mm 332.0 W/m2 CLR
19:31 21.4 °C 9.6 °C 1021.6 hPa NNW 37.0 km/h 37.0 km/h 47 % 0.0 mm 309.0 W/m2 CLR
19:36 21.3 °C 9.5 °C 1021.9 hPa NNW 35.2 km/h 35.2 km/h 47 % 0.0 mm 292.0 W/m2 CLR
19:41 21.1 °C 9.3 °C 1021.9 hPa NW 46.3 km/h 46.3 km/h 47 % 0.0 mm 285.0 W/m2 CLR
19:46 20.8 °C 9.4 °C 1021.9 hPa NNW 42.6 km/h 42.6 km/h 48 % 0.0 mm 241.0 W/m2 CLR
19:47 20.7 °C 9.3 °C 1021.9 hPa NNW 40.7 km/h 40.7 km/h 48 % 0.0 mm 262.0 W/m2 CLR
19:52 20.5 °C 9.4 °C 1021.9 hPa NW 31.5 km/h 31.5 km/h 49 % 0.0 mm 239.0 W/m2 CLR
19:57 20.6 °C 9.8 °C 1022.2 hPa NW 35.2 km/h 35.2 km/h 50 % 0.0 mm 213.0 W/m2 CLR
20:02 20.2 °C 9.8 °C 1022.2 hPa NW 27.8 km/h 27.8 km/h 51 % 0.0 mm 79.0 W/m2 CLR
20:07 19.9 °C 9.5 °C 1022.2 hPa ENE 37.0 km/h 37.0 km/h 51 % 0.0 mm 98.0 W/m2 CLR
20:12 20.0 °C 9.6 °C 1022.2 hPa NNW 25.7 km/h 25.7 km/h 51 % 0.0 mm 162.0 W/m2 CLR
20:17 20.1 °C 9.6 °C 1022.6 hPa NW 29.6 km/h 29.6 km/h 51 % 0.0 mm 165.0 W/m2 CLR
20:22 19.9 °C 9.5 °C 1022.6 hPa NW 31.5 km/h 31.5 km/h 51 % 0.0 mm 158.0 W/m2 CLR
20:27 20.1 °C 9.6 °C 1022.6 hPa NNW 37.0 km/h 37.0 km/h 51 % 0.0 mm 142.0 W/m2 CLR
20:32 20.1 °C 9.6 °C 1022.6 hPa NW 31.5 km/h 31.5 km/h 51 % 0.0 mm 120.0 W/m2 CLR
20:37 20.0 °C 9.6 °C 1022.6 hPa WNW 31.5 km/h 31.5 km/h 51 % 0.0 mm 109.0 W/m2 CLR
20:42 19.8 °C 9.3 °C 1022.6 hPa WNW 42.6 km/h 42.6 km/h 51 % 0.0 mm 102.0 W/m2 CLR
20:47 19.6 °C 9.5 °C 1022.6 hPa WNW 33.3 km/h 33.3 km/h 52 % 0.0 mm 77.0 W/m2 CLR
20:52 19.5 °C 9.4 °C 1022.9 hPa NW 38.9 km/h 38.9 km/h 52 % 0.0 mm 65.0 W/m2 SCT
20:57 19.4 °C 9.3 °C 1022.9 hPa NW 38.9 km/h 38.9 km/h 52 % 0.0 mm 46.0 W/m2 SCT
21:02 19.2 °C 9.3 °C 1022.9 hPa NNW 31.5 km/h 31.5 km/h 53 % 0.0 mm 46.0 W/m2 SCT
21:07 19.1 °C 9.3 °C 1022.9 hPa WNW 31.5 km/h 31.5 km/h 53 % 0.0 mm 39.0 W/m2 BKN
21:12 18.9 °C 9.4 °C 1022.9 hPa WNW 33.3 km/h 33.3 km/h 54 % 0.0 mm 28.0 W/m2 BKN
21:17 18.8 °C 9.3 °C 1023.2 hPa NW 24.1 km/h 24.1 km/h 54 % 0.0 mm 23.0 W/m2 BKN
21:22 18.6 °C 9.4 °C 1023.2 hPa NW 37.0 km/h 37.0 km/h 55 % 0.0 mm 18.0 W/m2 BKN
21:27 18.4 °C 9.5 °C 1023.2 hPa WNW 29.6 km/h 29.6 km/h 56 % 0.0 mm 11.0 W/m2 BKN
21:32 18.3 °C 9.3 °C 1023.2 hPa NNW 27.8 km/h 27.8 km/h 56 % 0.0 mm 7.0 W/m2 BKN
21:37 18.2 °C 9.3 °C 1023.2 hPa NW 20.9 km/h 20.9 km/h 56 % 0.0 mm 5.0 W/m2 OVC
21:42 18.1 °C 9.4 °C 1023.2 hPa NW 18.5 km/h 18.5 km/h 57 % 0.0 mm 0.0 W/m2 OVC
21:47 18.0 °C 9.3 °C 1023.6 hPa Calm     57 % 0.0 mm 0.0 W/m2 CLR
21:52 17.9 °C 9.6 °C 1023.6 hPa NW 31.5 km/h 31.5 km/h 58 % 0.0 mm 0.0 W/m2 CLR
21:53 17.9 °C 9.6 °C 1023.6 hPa NNW 31.5 km/h 31.5 km/h 58 % 0.0 mm 0.0 W/m2 CLR
21:58 17.8 °C 9.4 °C 1023.6 hPa WNW 18.5 km/h 18.5 km/h 58 % 0.0 mm 0.0 W/m2 CLR
22:03 17.8 °C 9.7 °C 1023.6 hPa WNW 25.9 km/h 25.9 km/h 59 % 0.0 mm 0.0 W/m2 CLR
22:08 17.7 °C 9.6 °C 1023.9 hPa WNW 31.5 km/h 31.5 km/h 59 % 0.0 mm 0.0 W/m2 CLR
22:13 17.6 °C 9.5 °C 1023.9 hPa West 11.1 km/h 11.1 km/h 59 % 0.0 mm 0.0 W/m2 CLR
22:18 17.6 °C 9.7 °C 1023.9 hPa West 18.5 km/h 18.5 km/h 60 % 0.0 mm 0.0 W/m2 CLR
22:23 17.5 °C 9.7 °C 1023.9 hPa West 19.3 km/h 19.3 km/h 60 % 0.0 mm 0.0 W/m2 CLR
22:28 17.4 °C 9.6 °C 1023.9 hPa WNW 13.0 km/h 13.0 km/h 60 % 0.0 mm 0.0 W/m2 CLR
22:33 17.3 °C 9.5 °C 1023.9 hPa West 19.3 km/h 19.3 km/h 60 % 0.0 mm 0.0 W/m2 CLR
22:38 17.3 °C 9.4 °C 1024.3 hPa WNW 20.4 km/h 20.4 km/h 60 % 0.0 mm 0.0 W/m2 CLR
22:43 17.2 °C 9.4 °C 1024.3 hPa WNW 13.0 km/h 13.0 km/h 60 % 0.0 mm 0.0 W/m2 CLR
22:48 17.2 °C 9.3 °C 1024.3 hPa WNW 27.8 km/h 27.8 km/h 60 % 0.0 mm 0.0 W/m2 CLR
22:53 17.1 °C 9.3 °C 1024.3 hPa NNW 24.1 km/h 24.1 km/h 60 % 0.0 mm 0.0 W/m2 CLR
22:58 17.1 °C 9.2 °C 1024.3 hPa NW 18.5 km/h 18.5 km/h 60 % 0.0 mm 0.0 W/m2 CLR
23:03 17.1 °C 9.2 °C 1024.3 hPa WNW 16.7 km/h 16.7 km/h 60 % 0.0 mm 0.0 W/m2 CLR
23:08 17.0 °C 9.2 °C 1024.6 hPa West 22.2 km/h 22.2 km/h 60 % 0.0 mm 0.0 W/m2 CLR
23:13 16.9 °C 9.1 °C 1024.6 hPa NW 31.5 km/h 31.5 km/h 60 % 0.0 mm 0.0 W/m2 CLR
23:18 16.9 °C 9.1 °C 1024.6 hPa West 18.5 km/h 18.5 km/h 60 % 0.0 mm 0.0 W/m2 CLR
23:23 16.8 °C 9.3 °C 1024.6 hPa NW 25.9 km/h 25.9 km/h 61 % 0.0 mm 0.0 W/m2 CLR
23:28 16.7 °C 9.2 °C 1024.6 hPa WNW 13.0 km/h 13.0 km/h 61 % 0.0 mm 0.0 W/m2 CLR
23:33 16.7 °C 9.3 °C 1024.6 hPa WNW 18.5 km/h 18.5 km/h 62 % 0.0 mm 0.0 W/m2 CLR
23:38 16.6 °C 9.6 °C 1024.9 hPa West 22.2 km/h 22.2 km/h 63 % 0.0 mm 0.0 W/m2 CLR
23:43 16.6 °C 9.2 °C 1024.9 hPa West 25.9 km/h 25.9 km/h 62 % 0.0 mm 0.0 W/m2 CLR
23:48 16.4 °C 9.1 °C 1024.9 hPa WNW 20.4 km/h 20.4 km/h 62 % 0.0 mm 0.0 W/m2 CLR
23:53 16.3 °C 9.1 °C 1024.9 hPa WNW 18.5 km/h 18.5 km/h 62 % 0.0 mm 0.0 W/m2 CLR
23:58 16.2 °C 9.2 °C 1024.9 hPa West 5.6 km/h 5.6 km/h 63 % 0.0 mm 0.0 W/m2 CLR
Lo Temps de Massalio
Compliments of Weather Underground - 1.25 mb